Airfield :
LOGIN :

Register | Disclaimer

   EN    FR    IT 

 










Legend :    VFR   Marginal VFR   IFR   Intensive IFR   Very Intensive IFR
Visi :
Ceiling :
>= 8 km
>= 3000ft
5 to 8 km
1000 to 3000 ft
1500m to 5 km
500 to 1000 ft
800 to 1500m
200 to 500 ft
< 800m
< 200 ft
Symbols :   Thunderstorms  Fog  Heavy snow  Heavy precipitations  Wind > 20 kt
SIGMETs :     Misc.  Thunderstorms  Icing  Turbulence  Mountain Waves  Volcanic Ashes







- Airport Elevation : 242 ft
- IATA code : DUB


EIDW - Dublin

CURRENT METAR :
  • 171430Z 23010KT 170V280 9999 -RA FEW010 BKN014 BKN020 15/13 Q1015 BECMG BKN012

EXPIRED METARs :
  • 171400Z 23012G23KT 190V270 9999 -RA FEW010 BKN014 BKN020 15/13 Q1015 BECMG BKN012
  • 171330Z 23012KT 190V280 9999 -RA FEW010 BKN014 BKN020 15/13 Q1015 BECMG BKN012
  • 171300Z 22012KT 170V280 9999 -RA FEW010 BKN014 BKN020 15/12 Q1015 BECMG BKN012
  • 171230Z 22011KT 190V270 9999 -RA FEW010 BKN014 BKN020 14/13 Q1015 BECMG BKN012
  • 171200Z 22012G22KT 180V260 9999 -RA BKN014 BKN025 14/12 Q1015 BECMG BKN012

TAF TAF EIDW
Valid from the 17 at 12:00 until the 18 at 12:00 UTC


171100Z 1712/1812 24014KT 9999 -RA SCT010 BKN015
TEMPO 1712/1722 25017G28KT
TEMPO 1712/1716 5000 -RADZ BKN010
BECMG 1716/1718 SCT012 BKN020
TEMPO 1720/1803 BKN012
TEMPO 1804/1810 -DZ BKN008
No reported NOTAMs for that airfield.



MET'MAP, your aeronautical weather chart ! - Copyright ORBIFLY December 2007 - Disclaimer

ORBIFLY MET'MAP TEAM :

Programming & Development : Alexandra Zaïnal
Concept & Development : Baudouin d'Aumeries
Co-Development & Prog : Marc-Olivier Méhu
Technical & hardware support : Manuel Goepfert

Contact : metmap@orbifly.com




SOURCES & CREDITS :

   NOAA